sensor_id;sensor_type;location;lat;lon;timestamp;noise_LAeq;noise_LA_min;noise_LA_max;noise_LA01;noise_LA95
52872;Laerm;40124;52.198;9.902;2023-05-10T00:00:33;41.74;38.52;43.94;;
52872;Laerm;40124;52.198;9.902;2023-05-10T00:02:58;54.35;38.99;73.42;;
52872;Laerm;40124;52.198;9.902;2023-05-10T00:05:24;42.16;39.08;44.35;;
52872;Laerm;40124;52.198;9.902;2023-05-10T00:07:49;51.83;39.08;70.40;;
52872;Laerm;40124;52.198;9.902;2023-05-10T00:10:14;41.95;38.37;45.33;;
52872;Laerm;40124;52.198;9.902;2023-05-10T00:12:39;42.01;38.05;44.39;;
52872;Laerm;40124;52.198;9.902;2023-05-10T00:15:05;42.62;39.46;44.69;;
52872;Laerm;40124;52.198;9.902;2023-05-10T00:17:30;42.68;38.67;46.52;;
52872;Laerm;40124;52.198;9.902;2023-05-10T00:19:55;42.87;40.03;45.51;;
52872;Laerm;40124;52.198;9.902;2023-05-10T00:22:20;42.09;39.21;44.58;;
52872;Laerm;40124;52.198;9.902;2023-05-10T00:24:46;69.03;39.92;90.59;;
52872;Laerm;40124;52.198;9.902;2023-05-10T00:27:11;61.11;39.08;82.99;;
52872;Laerm;40124;52.198;9.902;2023-05-10T00:29:36;42.29;39.70;44.94;;
52872;Laerm;40124;52.198;9.902;2023-05-10T00:32:01;56.83;39.89;77.78;;
52872;Laerm;40124;52.198;9.902;2023-05-10T00:34:26;42.41;38.95;44.76;;
52872;Laerm;40124;52.198;9.902;2023-05-10T00:36:52;42.27;39.21;44.69;;
52872;Laerm;40124;52.198;9.902;2023-05-10T00:39:17;41.56;38.21;43.94;;
52872;Laerm;40124;52.198;9.902;2023-05-10T00:41:42;41.61;38.81;44.69;;
52872;Laerm;40124;52.198;9.902;2023-05-10T00:44:07;41.66;38.81;55.28;;
52872;Laerm;40124;52.198;9.902;2023-05-10T00:46:32;42.03;38.81;45.48;;
52872;Laerm;40124;52.198;9.902;2023-05-10T00:48:58;42.19;39.46;46.28;;
52872;Laerm;40124;52.198;9.902;2023-05-10T00:51:23;67.80;39.34;89.99;;
52872;Laerm;40124;52.198;9.902;2023-05-10T00:53:48;42.03;38.52;45.75;;
52872;Laerm;40124;52.198;9.902;2023-05-10T00:56:14;41.71;38.81;45.04;;
52872;Laerm;40124;52.198;9.902;2023-05-10T00:58:40;41.55;39.21;44.20;;
52872;Laerm;40124;52.198;9.902;2023-05-10T01:01:05;48.81;38.52;62.36;;
52872;Laerm;40124;52.198;9.902;2023-05-10T01:03:31;58.46;38.37;79.19;;
52872;Laerm;40124;52.198;9.902;2023-05-10T01:05:56;41.53;38.67;52.51;;
52872;Laerm;40124;52.198;9.902;2023-05-10T01:08:22;58.15;38.67;78.29;;
52872;Laerm;40124;52.198;9.902;2023-05-10T01:10:47;58.82;39.21;79.88;;
52872;Laerm;40124;52.198;9.902;2023-05-10T01:13:15;59.60;38.67;81.04;;
52872;Laerm;40124;52.198;9.902;2023-05-10T01:15:43;57.03;38.81;77.32;;
52872;Laerm;40124;52.198;9.902;2023-05-10T01:18:09;48.10;38.81;69.56;;
52872;Laerm;40124;52.198;9.902;2023-05-10T01:20:36;54.73;39.08;75.35;;
52872;Laerm;40124;52.198;9.902;2023-05-10T01:33:11;58.62;39.34;78.83;;
52872;Laerm;40124;52.198;9.902;2023-05-10T01:35:48;67.21;39.08;87.87;;
52872;Laerm;40124;52.198;9.902;2023-05-10T01:38:17;41.96;37.88;43.86;;
52872;Laerm;40124;52.198;9.902;2023-05-10T01:43:28;41.80;38.81;48.00;;
52872;Laerm;40124;52.198;9.902;2023-05-10T01:46:09;41.88;38.81;43.72;;
52872;Laerm;40124;52.198;9.902;2023-05-10T01:48:57;57.35;39.58;78.94;;
52872;Laerm;40124;52.198;9.902;2023-05-10T01:51:25;41.96;39.08;45.36;;
52872;Laerm;40124;52.198;9.902;2023-05-10T01:53:51;42.24;38.81;47.38;;
52872;Laerm;40124;52.198;9.902;2023-05-10T01:56:19;58.27;38.67;78.26;;
52872;Laerm;40124;52.198;9.902;2023-05-10T01:58:46;59.35;39.92;76.85;;
52872;Laerm;40124;52.198;9.902;2023-05-10T02:01:13;42.34;39.58;44.73;;
52872;Laerm;40124;52.198;9.902;2023-05-10T02:03:38;46.33;39.21;58.73;;
52872;Laerm;40124;52.198;9.902;2023-05-10T02:06:05;57.99;38.81;76.64;;
52872;Laerm;40124;52.198;9.902;2023-05-10T02:08:31;62.35;38.52;80.60;;
52872;Laerm;40124;52.198;9.902;2023-05-10T02:10:57;58.20;39.46;79.42;;
52872;Laerm;40124;52.198;9.902;2023-05-10T02:13:24;57.20;39.08;77.70;;
52872;Laerm;40124;52.198;9.902;2023-05-10T02:15:50;58.75;37.70;78.39;;
52872;Laerm;40124;52.198;9.902;2023-05-10T02:18:16;57.67;39.58;77.15;;
52872;Laerm;40124;52.198;9.902;2023-05-10T02:20:43;43.02;39.08;71.15;;
52872;Laerm;40124;52.198;9.902;2023-05-10T02:23:13;66.47;39.92;84.55;;
52872;Laerm;40124;52.198;9.902;2023-05-10T02:25:38;68.22;39.58;87.20;;
52872;Laerm;40124;52.198;9.902;2023-05-10T02:28:04;44.75;38.81;57.76;;
52872;Laerm;40124;52.198;9.902;2023-05-10T02:30:31;57.39;39.34;77.71;;
52872;Laerm;40124;52.198;9.902;2023-05-10T02:32:57;44.80;39.92;56.06;;
52872;Laerm;40124;52.198;9.902;2023-05-10T02:35:23;67.11;40.53;83.93;;
52872;Laerm;40124;52.198;9.902;2023-05-10T02:37:50;68.65;39.08;87.18;;
52872;Laerm;40124;52.198;9.902;2023-05-10T02:40:16;63.91;40.23;85.45;;
52872;Laerm;40124;52.198;9.902;2023-05-10T02:42:42;65.77;40.43;86.81;;
52872;Laerm;40124;52.198;9.902;2023-05-10T02:45:11;64.65;40.13;87.23;;
52872;Laerm;40124;52.198;9.902;2023-05-10T02:47:36;64.13;40.80;84.11;;
52872;Laerm;40124;52.198;9.902;2023-05-10T02:50:02;46.67;40.23;57.19;;
52872;Laerm;40124;52.198;9.902;2023-05-10T02:52:28;63.88;41.53;79.53;;
52872;Laerm;40124;52.198;9.902;2023-05-10T02:54:55;62.82;41.14;79.97;;
52872;Laerm;40124;52.198;9.902;2023-05-10T02:57:31;64.18;41.06;83.98;;
52872;Laerm;40124;52.198;9.902;2023-05-10T02:59:58;61.66;41.68;78.96;;
52872;Laerm;40124;52.198;9.902;2023-05-10T03:02:23;57.79;41.14;78.03;;
52872;Laerm;40124;52.198;9.902;2023-05-10T03:04:48;60.62;41.22;78.83;;
52872;Laerm;40124;52.198;9.902;2023-05-10T03:07:13;63.61;41.89;81.44;;
52872;Laerm;40124;52.198;9.902;2023-05-10T03:09:39;62.27;41.75;78.65;;
52872;Laerm;40124;52.198;9.902;2023-05-10T03:12:10;64.94;42.76;81.86;;
52872;Laerm;40124;52.198;9.902;2023-05-10T03:17:29;68.68;42.98;83.47;;
52872;Laerm;40124;52.198;9.902;2023-05-10T03:19:56;62.88;41.68;80.41;;
52872;Laerm;40124;52.198;9.902;2023-05-10T03:22:25;68.58;45.75;80.52;;
52872;Laerm;40124;52.198;9.902;2023-05-10T03:24:52;70.36;45.83;85.40;;
52872;Laerm;40124;52.198;9.902;2023-05-10T03:27:18;67.17;41.96;80.83;;
52872;Laerm;40124;52.198;9.902;2023-05-10T03:29:43;63.98;41.53;81.19;;
52872;Laerm;40124;52.198;9.902;2023-05-10T03:32:09;69.90;42.93;81.71;;
52872;Laerm;40124;52.198;9.902;2023-05-10T03:34:35;70.03;45.75;81.77;;
52872;Laerm;40124;52.198;9.902;2023-05-10T03:37:05;66.69;42.24;79.77;;
52872;Laerm;40124;52.198;9.902;2023-05-10T03:39:31;67.59;42.98;79.66;;
52872;Laerm;40124;52.198;9.902;2023-05-10T03:41:56;72.06;43.54;86.34;;
52872;Laerm;40124;52.198;9.902;2023-05-10T03:44:21;68.90;45.83;82.00;;
52872;Laerm;40124;52.198;9.902;2023-05-10T03:46:46;69.67;45.07;82.57;;
52872;Laerm;40124;52.198;9.902;2023-05-10T03:49:11;68.70;42.82;81.59;;
52872;Laerm;40124;52.198;9.902;2023-05-10T03:51:36;71.81;45.91;89.39;;
52872;Laerm;40124;52.198;9.902;2023-05-10T03:54:02;73.81;44.73;89.84;;
52872;Laerm;40124;52.198;9.902;2023-05-10T03:56:27;67.86;44.38;82.14;;
52872;Laerm;40124;52.198;9.902;2023-05-10T03:58:52;69.77;46.97;83.21;;
52872;Laerm;40124;52.198;9.902;2023-05-10T04:01:17;73.92;50.02;88.54;;
52872;Laerm;40124;52.198;9.902;2023-05-10T04:03:42;72.46;46.91;87.14;;
52872;Laerm;40124;52.198;9.902;2023-05-10T04:06:07;72.64;45.04;86.21;;
52872;Laerm;40124;52.198;9.902;2023-05-10T04:08:36;72.14;48.31;84.66;;
52872;Laerm;40124;52.198;9.902;2023-05-10T04:11:05;73.90;51.41;90.39;;
52872;Laerm;40124;52.198;9.902;2023-05-10T04:13:31;70.58;50.34;82.94;;
52872;Laerm;40124;52.198;9.902;2023-05-10T04:15:56;75.10;48.98;92.40;;
52872;Laerm;40124;52.198;9.902;2023-05-10T04:18:21;71.93;46.57;82.40;;
52872;Laerm;40124;52.198;9.902;2023-05-10T04:20:46;72.22;47.93;83.29;;
52872;Laerm;40124;52.198;9.902;2023-05-10T04:23:11;70.96;43.99;82.79;;
52872;Laerm;40124;52.198;9.902;2023-05-10T04:25:37;73.69;43.34;90.21;;
52872;Laerm;40124;52.198;9.902;2023-05-10T04:28:02;74.31;50.75;84.73;;
52872;Laerm;40124;52.198;9.902;2023-05-10T04:30:27;72.44;50.00;83.55;;
52872;Laerm;40124;52.198;9.902;2023-05-10T04:32:54;68.79;43.34;81.93;;
52872;Laerm;40124;52.198;9.902;2023-05-10T04:35:19;75.43;55.53;90.17;;
52872;Laerm;40124;52.198;9.902;2023-05-10T04:37:44;72.27;49.83;84.39;;
52872;Laerm;40124;52.198;9.902;2023-05-10T04:40:09;71.91;44.76;83.17;;
52872;Laerm;40124;52.198;9.902;2023-05-10T04:42:35;75.57;48.92;90.81;;
52872;Laerm;40124;52.198;9.902;2023-05-10T04:45:00;74.23;44.19;84.20;;
52872;Laerm;40124;52.198;9.902;2023-05-10T04:47:25;76.55;61.07;87.41;;
52872;Laerm;40124;52.198;9.902;2023-05-10T04:49:50;74.51;54.50;87.49;;
52872;Laerm;40124;52.198;9.902;2023-05-10T04:52:15;72.56;48.08;84.27;;
52872;Laerm;40124;52.198;9.902;2023-05-10T04:54:42;73.87;47.72;83.62;;
52872;Laerm;40124;52.198;9.902;2023-05-10T04:57:07;76.20;47.55;90.45;;
52872;Laerm;40124;52.198;9.902;2023-05-10T04:59:32;75.81;58.70;86.29;;
52872;Laerm;40124;52.198;9.902;2023-05-10T05:01:57;73.79;48.61;88.79;;
52872;Laerm;40124;52.198;9.902;2023-05-10T05:04:23;73.52;49.63;83.90;;
52872;Laerm;40124;52.198;9.902;2023-05-10T05:06:49;75.15;49.89;89.43;;
52872;Laerm;40124;52.198;9.902;2023-05-10T05:09:14;74.57;49.98;83.69;;
52872;Laerm;40124;52.198;9.902;2023-05-10T05:11:39;73.37;43.72;86.41;;
52872;Laerm;40124;52.198;9.902;2023-05-10T05:14:05;73.97;48.73;84.04;;
52872;Laerm;40124;52.198;9.902;2023-05-10T05:16:30;72.99;48.54;84.36;;
52872;Laerm;40124;52.198;9.902;2023-05-10T05:18:56;75.22;58.40;87.32;;
52872;Laerm;40124;52.198;9.902;2023-05-10T05:21:22;74.33;52.68;87.90;;
52872;Laerm;40124;52.198;9.902;2023-05-10T05:23:47;73.18;48.25;84.55;;
52872;Laerm;40124;52.198;9.902;2023-05-10T05:26:12;74.74;57.50;84.12;;
52872;Laerm;40124;52.198;9.902;2023-05-10T05:28:37;75.01;57.90;82.75;;
52872;Laerm;40124;52.198;9.902;2023-05-10T05:31:03;75.31;53.50;89.06;;
52872;Laerm;40124;52.198;9.902;2023-05-10T05:33:28;74.43;52.68;85.06;;
52872;Laerm;40124;52.198;9.902;2023-05-10T05:35:53;74.71;47.76;89.21;;
52872;Laerm;40124;52.198;9.902;2023-05-10T05:38:19;75.35;56.39;88.44;;
52872;Laerm;40124;52.198;9.902;2023-05-10T05:40:44;75.86;49.45;86.63;;
52872;Laerm;40124;52.198;9.902;2023-05-10T05:43:10;75.23;59.83;85.94;;
52872;Laerm;40124;52.198;9.902;2023-05-10T05:45:35;75.78;53.31;90.02;;
52872;Laerm;40124;52.198;9.902;2023-05-10T05:48:00;74.84;50.86;84.64;;
52872;Laerm;40124;52.198;9.902;2023-05-10T05:50:25;75.36;56.79;82.70;;
52872;Laerm;40124;52.198;9.902;2023-05-10T05:52:51;76.10;56.16;87.90;;
52872;Laerm;40124;52.198;9.902;2023-05-10T05:55:16;73.95;50.14;87.27;;
52872;Laerm;40124;52.198;9.902;2023-05-10T05:57:41;74.06;51.30;83.67;;
52872;Laerm;40124;52.198;9.902;2023-05-10T06:00:06;75.57;54.01;90.99;;
52872;Laerm;40124;52.198;9.902;2023-05-10T06:02:32;74.76;51.47;85.26;;
52872;Laerm;40124;52.198;9.902;2023-05-10T06:04:57;74.55;52.83;86.93;;
52872;Laerm;40124;52.198;9.902;2023-05-10T06:07:22;71.18;48.20;83.00;;
52872;Laerm;40124;52.198;9.902;2023-05-10T06:09:47;73.63;47.90;83.52;;
52872;Laerm;40124;52.198;9.902;2023-05-10T06:12:12;74.40;54.78;88.46;;
52872;Laerm;40124;52.198;9.902;2023-05-10T06:14:38;72.97;50.54;84.76;;
52872;Laerm;40124;52.198;9.902;2023-05-10T06:17:03;74.89;56.06;89.63;;
52872;Laerm;40124;52.198;9.902;2023-05-10T06:19:29;73.25;52.76;87.54;;
52872;Laerm;40124;52.198;9.902;2023-05-10T06:21:55;71.02;47.90;84.91;;
52872;Laerm;40124;52.198;9.902;2023-05-10T06:24:21;75.31;50.66;87.23;;
52872;Laerm;40124;52.198;9.902;2023-05-10T06:26:46;71.50;45.86;84.42;;
52872;Laerm;40124;52.198;9.902;2023-05-10T06:29:11;75.76;49.25;88.90;;
52872;Laerm;40124;52.198;9.902;2023-05-10T06:31:37;70.91;46.48;83.81;;
52872;Laerm;40124;52.198;9.902;2023-05-10T06:34:02;73.62;55.92;86.85;;
52872;Laerm;40124;52.198;9.902;2023-05-10T06:36:27;72.99;54.85;89.35;;
52872;Laerm;40124;52.198;9.902;2023-05-10T06:38:52;70.48;45.60;84.32;;
52872;Laerm;40124;52.198;9.902;2023-05-10T06:41:18;73.36;52.13;88.74;;
52872;Laerm;40124;52.198;9.902;2023-05-10T06:43:43;74.19;44.83;85.31;;
52872;Laerm;40124;52.198;9.902;2023-05-10T06:46:08;74.37;52.42;88.76;;
52872;Laerm;40124;52.198;9.902;2023-05-10T06:48:33;70.95;45.48;82.99;;
52872;Laerm;40124;52.198;9.902;2023-05-10T06:50:59;72.89;55.17;83.75;;
52872;Laerm;40124;52.198;9.902;2023-05-10T06:53:24;70.15;44.80;85.86;;
52872;Laerm;40124;52.198;9.902;2023-05-10T06:55:49;68.38;43.94;82.67;;
52872;Laerm;40124;52.198;9.902;2023-05-10T06:58:14;72.47;44.83;88.05;;
52872;Laerm;40124;52.198;9.902;2023-05-10T07:00:39;74.63;52.22;85.98;;
52872;Laerm;40124;52.198;9.902;2023-05-10T07:03:07;71.42;52.13;83.95;;
52872;Laerm;40124;52.198;9.902;2023-05-10T07:05:32;72.98;54.72;90.63;;
52872;Laerm;40124;52.198;9.902;2023-05-10T07:07:57;72.80;50.10;86.15;;
52872;Laerm;40124;52.198;9.902;2023-05-10T07:10:23;71.51;46.28;89.15;;
52872;Laerm;40124;52.198;9.902;2023-05-10T07:12:48;72.12;49.28;87.70;;
52872;Laerm;40124;52.198;9.902;2023-05-10T07:15:13;70.26;45.69;83.86;;
52872;Laerm;40124;52.198;9.902;2023-05-10T07:17:38;73.76;50.71;88.14;;
52872;Laerm;40124;52.198;9.902;2023-05-10T07:20:03;70.86;48.08;84.41;;
52872;Laerm;40124;52.198;9.902;2023-05-10T07:22:29;72.92;45.75;88.29;;
52872;Laerm;40124;52.198;9.902;2023-05-10T07:24:54;72.40;50.25;86.63;;
52872;Laerm;40124;52.198;9.902;2023-05-10T07:27:19;69.78;46.43;84.56;;
52872;Laerm;40124;52.198;9.902;2023-05-10T07:29:44;71.66;48.60;88.08;;
52872;Laerm;40124;52.198;9.902;2023-05-10T07:32:09;72.56;45.63;85.25;;
52872;Laerm;40124;52.198;9.902;2023-05-10T07:34:35;70.02;48.88;84.07;;
52872;Laerm;40124;52.198;9.902;2023-05-10T07:37:00;71.83;47.42;87.16;;
52872;Laerm;40124;52.198;9.902;2023-05-10T07:39:26;70.60;46.55;82.76;;
52872;Laerm;40124;52.198;9.902;2023-05-10T07:41:51;72.03;44.54;86.09;;
52872;Laerm;40124;52.198;9.902;2023-05-10T07:44:16;70.53;48.00;82.27;;
52872;Laerm;40124;52.198;9.902;2023-05-10T07:46:44;70.82;50.37;85.24;;
52872;Laerm;40124;52.198;9.902;2023-05-10T07:49:09;71.25;47.93;85.50;;
52872;Laerm;40124;52.198;9.902;2023-05-10T07:51:34;74.14;51.12;89.24;;
52872;Laerm;40124;52.198;9.902;2023-05-10T07:53:59;69.42;47.20;81.37;;
52872;Laerm;40124;52.198;9.902;2023-05-10T07:56:28;67.23;45.42;80.78;;
52872;Laerm;40124;52.198;9.902;2023-05-10T07:58:57;72.03;52.50;84.59;;
52872;Laerm;40124;52.198;9.902;2023-05-10T08:01:23;71.40;44.27;86.24;;
52872;Laerm;40124;52.198;9.902;2023-05-10T08:03:48;68.17;43.68;82.30;;
52872;Laerm;40124;52.198;9.902;2023-05-10T08:06:14;74.29;46.23;94.91;;
52872;Laerm;40124;52.198;9.902;2023-05-10T08:08:40;70.82;48.71;81.95;;
52872;Laerm;40124;52.198;9.902;2023-05-10T08:11:05;69.24;48.32;81.94;;
52872;Laerm;40124;52.198;9.902;2023-05-10T08:13:30;71.51;44.35;88.58;;
52872;Laerm;40124;52.198;9.902;2023-05-10T08:15:56;69.14;50.85;81.31;;
52872;Laerm;40124;52.198;9.902;2023-05-10T08:18:21;70.17;44.62;86.90;;
52872;Laerm;40124;52.198;9.902;2023-05-10T08:20:46;70.78;50.73;83.93;;
52872;Laerm;40124;52.198;9.902;2023-05-10T08:23:12;68.11;41.22;83.25;;
52872;Laerm;40124;52.198;9.902;2023-05-10T08:25:38;66.90;45.23;79.85;;
52872;Laerm;40124;52.198;9.902;2023-05-10T08:28:03;69.92;41.38;81.60;;
52872;Laerm;40124;52.198;9.902;2023-05-10T08:30:28;66.19;43.34;79.77;;
52872;Laerm;40124;52.198;9.902;2023-05-10T08:32:53;68.40;43.68;82.23;;
52872;Laerm;40124;52.198;9.902;2023-05-10T08:35:18;69.79;48.52;83.20;;
52872;Laerm;40124;52.198;9.902;2023-05-10T08:37:43;72.27;50.00;88.40;;
52872;Laerm;40124;52.198;9.902;2023-05-10T08:40:09;71.29;47.18;84.98;;
52872;Laerm;40124;52.198;9.902;2023-05-10T08:42:36;69.89;44.97;86.35;;
52872;Laerm;40124;52.198;9.902;2023-05-10T08:45:05;70.54;43.81;86.88;;
52872;Laerm;40124;52.198;9.902;2023-05-10T08:47:33;70.54;48.42;85.01;;
52872;Laerm;40124;52.198;9.902;2023-05-10T08:49:59;69.99;48.91;86.22;;
52872;Laerm;40124;52.198;9.902;2023-05-10T08:52:26;71.84;45.63;84.50;;
52872;Laerm;40124;52.198;9.902;2023-05-10T08:54:53;71.64;46.55;83.35;;
52872;Laerm;40124;52.198;9.902;2023-05-10T08:57:18;72.05;49.45;88.87;;
52872;Laerm;40124;52.198;9.902;2023-05-10T08:59:43;68.97;45.39;80.62;;
52872;Laerm;40124;52.198;9.902;2023-05-10T09:02:09;67.79;44.94;78.29;;
52872;Laerm;40124;52.198;9.902;2023-05-10T09:04:35;68.31;45.89;85.55;;
52872;Laerm;40124;52.198;9.902;2023-05-10T09:07:00;69.84;45.33;83.67;;
52872;Laerm;40124;52.198;9.902;2023-05-10T09:09:26;72.63;54.59;90.76;;
52872;Laerm;40124;52.198;9.902;2023-05-10T09:11:52;70.01;46.13;82.50;;
52872;Laerm;40124;52.198;9.902;2023-05-10T09:14:18;71.56;47.74;86.81;;
52872;Laerm;40124;52.198;9.902;2023-05-10T09:16:43;69.31;45.14;81.73;;
52872;Laerm;40124;52.198;9.902;2023-05-10T09:19:08;70.43;47.04;82.08;;
52872;Laerm;40124;52.198;9.902;2023-05-10T09:21:35;66.77;45.20;80.60;;
52872;Laerm;40124;52.198;9.902;2023-05-10T09:24:03;69.56;44.69;85.38;;
52872;Laerm;40124;52.198;9.902;2023-05-10T09:26:29;67.84;45.97;80.98;;
52872;Laerm;40124;52.198;9.902;2023-05-10T09:28:55;68.46;43.24;79.30;;
52872;Laerm;40124;52.198;9.902;2023-05-10T09:31:22;73.55;43.00;88.78;;
52872;Laerm;40124;52.198;9.902;2023-05-10T09:33:51;68.97;42.03;83.69;;
52872;Laerm;40124;52.198;9.902;2023-05-10T09:36:16;71.81;45.48;87.70;;
52872;Laerm;40124;52.198;9.902;2023-05-10T09:38:48;68.95;45.69;80.11;;
52872;Laerm;40124;52.198;9.902;2023-05-10T09:41:17;69.61;46.89;82.58;;
52872;Laerm;40124;52.198;9.902;2023-05-10T09:43:43;72.76;44.23;90.50;;
52872;Laerm;40124;52.198;9.902;2023-05-10T09:46:09;70.15;48.77;83.01;;
52872;Laerm;40124;52.198;9.902;2023-05-10T09:48:37;69.18;45.63;80.00;;
52872;Laerm;40124;52.198;9.902;2023-05-10T09:51:05;68.90;43.49;84.31;;
52872;Laerm;40124;52.198;9.902;2023-05-10T09:53:30;67.74;42.98;79.25;;
52872;Laerm;40124;52.198;9.902;2023-05-10T09:55:55;69.01;43.19;81.13;;
52872;Laerm;40124;52.198;9.902;2023-05-10T09:58:20;70.67;45.01;86.23;;
52872;Laerm;40124;52.198;9.902;2023-05-10T10:00:46;66.53;49.07;78.28;;
52872;Laerm;40124;52.198;9.902;2023-05-10T10:03:13;69.37;48.81;81.18;;
52872;Laerm;40124;52.198;9.902;2023-05-10T10:05:39;70.24;47.42;83.84;;
52872;Laerm;40124;52.198;9.902;2023-05-10T10:08:05;69.94;46.50;83.73;;
52872;Laerm;40124;52.198;9.902;2023-05-10T10:10:31;69.87;41.06;84.33;;
52872;Laerm;40124;52.198;9.902;2023-05-10T10:12:56;69.11;46.52;80.97;;
52872;Laerm;40124;52.198;9.902;2023-05-10T10:15:22;69.98;46.62;85.95;;
52872;Laerm;40124;52.198;9.902;2023-05-10T10:17:48;67.76;42.41;80.90;;
52872;Laerm;40124;52.198;9.902;2023-05-10T10:20:14;68.73;45.62;80.76;;
52872;Laerm;40124;52.198;9.902;2023-05-10T10:22:39;67.05;42.82;79.67;;
52872;Laerm;40124;52.198;9.902;2023-05-10T10:25:07;69.85;44.90;85.64;;
52872;Laerm;40124;52.198;9.902;2023-05-10T10:35:31;71.26;43.68;85.97;;
52872;Laerm;40124;52.198;9.902;2023-05-10T10:37:56;70.77;48.25;85.05;;
52872;Laerm;40124;52.198;9.902;2023-05-10T10:42:50;70.04;42.16;86.60;;
52872;Laerm;40124;52.198;9.902;2023-05-10T10:45:16;70.06;42.88;85.48;;
52872;Laerm;40124;52.198;9.902;2023-05-10T10:47:41;71.97;48.95;88.10;;
52872;Laerm;40124;52.198;9.902;2023-05-10T10:50:08;68.99;51.61;81.08;;
52872;Laerm;40124;52.198;9.902;2023-05-10T10:52:35;69.35;48.48;82.24;;
52872;Laerm;40124;52.198;9.902;2023-05-10T10:57:26;71.12;51.93;85.92;;
52872;Laerm;40124;52.198;9.902;2023-05-10T10:59:53;70.85;41.89;85.89;;
52872;Laerm;40124;52.198;9.902;2023-05-10T11:02:43;73.90;42.76;91.56;;
52872;Laerm;40124;52.198;9.902;2023-05-10T11:07:51;71.34;44.62;86.10;;
52872;Laerm;40124;52.198;9.902;2023-05-10T11:10:19;71.11;49.14;89.95;;
52872;Laerm;40124;52.198;9.902;2023-05-10T11:15:47;71.89;45.11;87.34;;
52872;Laerm;40124;52.198;9.902;2023-05-10T11:18:17;70.06;44.19;80.65;;
52872;Laerm;40124;52.198;9.902;2023-05-10T11:20:43;69.70;45.72;84.73;;
52872;Laerm;40124;52.198;9.902;2023-05-10T11:23:12;67.79;46.02;81.27;;
52872;Laerm;40124;52.198;9.902;2023-05-10T11:25:44;70.62;53.20;96.32;;
52872;Laerm;40124;52.198;9.902;2023-05-10T11:28:10;67.98;42.71;81.36;;
52872;Laerm;40124;52.198;9.902;2023-05-10T11:30:37;71.60;43.86;89.20;;
52872;Laerm;40124;52.198;9.902;2023-05-10T11:33:03;70.04;48.74;82.27;;
52872;Laerm;40124;52.198;9.902;2023-05-10T11:35:28;68.61;46.84;80.67;;
52872;Laerm;40124;52.198;9.902;2023-05-10T11:37:53;69.11;46.82;82.87;;
52872;Laerm;40124;52.198;9.902;2023-05-10T11:40:18;69.76;44.87;83.33;;
52872;Laerm;40124;52.198;9.902;2023-05-10T11:42:44;71.15;46.62;84.58;;
52872;Laerm;40124;52.198;9.902;2023-05-10T11:45:09;69.65;43.49;85.24;;
52872;Laerm;40124;52.198;9.902;2023-05-10T11:47:35;71.23;41.14;81.78;;
52872;Laerm;40124;52.198;9.902;2023-05-10T11:50:01;74.06;43.54;91.11;;
52872;Laerm;40124;52.198;9.902;2023-05-10T11:52:27;71.11;46.64;86.10;;
52872;Laerm;40124;52.198;9.902;2023-05-10T11:54:52;67.72;44.51;81.57;;
52872;Laerm;40124;52.198;9.902;2023-05-10T11:57:18;69.47;41.82;84.20;;
52872;Laerm;40124;52.198;9.902;2023-05-10T11:59:44;71.27;44.51;86.27;;
52872;Laerm;40124;52.198;9.902;2023-05-10T12:02:10;68.44;40.71;85.16;;
52872;Laerm;40124;52.198;9.902;2023-05-10T12:04:36;67.28;42.53;80.80;;
52872;Laerm;40124;52.198;9.902;2023-05-10T12:07:01;68.48;44.76;81.13;;
52872;Laerm;40124;52.198;9.902;2023-05-10T12:09:26;69.84;46.57;81.26;;
52872;Laerm;40124;52.198;9.902;2023-05-10T12:11:54;71.20;49.62;85.27;;
52872;Laerm;40124;52.198;9.902;2023-05-10T12:14:21;69.08;45.07;83.90;;
52872;Laerm;40124;52.198;9.902;2023-05-10T12:16:46;67.73;43.49;80.37;;
52872;Laerm;40124;52.198;9.902;2023-05-10T12:19:12;70.99;41.53;88.83;;
52872;Laerm;40124;52.198;9.902;2023-05-10T12:21:37;72.25;46.62;88.16;;
52872;Laerm;40124;52.198;9.902;2023-05-10T12:24:03;69.80;43.34;82.77;;
52872;Laerm;40124;52.198;9.902;2023-05-10T12:26:30;69.27;41.30;83.31;;
52872;Laerm;40124;52.198;9.902;2023-05-10T12:28:55;72.02;47.61;86.44;;
52872;Laerm;40124;52.198;9.902;2023-05-10T12:31:48;72.00;47.08;84.85;;
52872;Laerm;40124;52.198;9.902;2023-05-10T12:34:22;71.14;47.55;84.28;;
52872;Laerm;40124;52.198;9.902;2023-05-10T12:36:49;69.25;47.54;79.86;;
52872;Laerm;40124;52.198;9.902;2023-05-10T12:39:15;73.45;46.45;89.40;;
52872;Laerm;40124;52.198;9.902;2023-05-10T12:41:40;70.08;43.81;82.04;;
52872;Laerm;40124;52.198;9.902;2023-05-10T12:44:05;72.20;54.15;86.61;;
52872;Laerm;40124;52.198;9.902;2023-05-10T12:46:30;74.09;52.78;90.11;;
52872;Laerm;40124;52.198;9.902;2023-05-10T12:48:56;72.64;50.15;83.32;;
52872;Laerm;40124;52.198;9.902;2023-05-10T12:51:21;73.97;52.87;85.04;;
52872;Laerm;40124;52.198;9.902;2023-05-10T12:53:46;73.02;54.08;86.70;;
52872;Laerm;40124;52.198;9.902;2023-05-10T12:56:12;73.07;44.83;88.09;;
52872;Laerm;40124;52.198;9.902;2023-05-10T12:58:38;72.67;47.83;86.82;;
52872;Laerm;40124;52.198;9.902;2023-05-10T13:01:04;71.40;53.70;80.62;;
52872;Laerm;40124;52.198;9.902;2023-05-10T13:03:29;71.29;51.93;81.34;;
52872;Laerm;40124;52.198;9.902;2023-05-10T13:05:55;73.30;48.73;88.95;;
52872;Laerm;40124;52.198;9.902;2023-05-10T13:08:20;71.47;53.35;82.15;;
52872;Laerm;40124;52.198;9.902;2023-05-10T13:10:45;75.37;51.29;92.27;;
52872;Laerm;40124;52.198;9.902;2023-05-10T13:13:10;73.72;53.19;84.24;;
52872;Laerm;40124;52.198;9.902;2023-05-10T13:15:36;73.09;50.40;86.80;;
52872;Laerm;40124;52.198;9.902;2023-05-10T13:18:01;71.47;46.71;84.62;;
52872;Laerm;40124;52.198;9.902;2023-05-10T13:20:26;71.92;47.53;82.67;;
52872;Laerm;40124;52.198;9.902;2023-05-10T13:22:52;72.94;57.11;84.12;;
52872;Laerm;40124;52.198;9.902;2023-05-10T13:25:17;72.04;47.55;87.34;;
52872;Laerm;40124;52.198;9.902;2023-05-10T13:27:42;72.89;53.34;87.15;;
52872;Laerm;40124;52.198;9.902;2023-05-10T13:30:07;70.06;44.11;81.20;;
52872;Laerm;40124;52.198;9.902;2023-05-10T13:32:33;72.17;49.50;89.24;;
52872;Laerm;40124;52.198;9.902;2023-05-10T13:34:58;70.58;48.36;80.39;;
52872;Laerm;40124;52.198;9.902;2023-05-10T13:37:23;74.37;52.63;88.00;;
52872;Laerm;40124;52.198;9.902;2023-05-10T13:39:49;70.28;46.69;81.14;;
52872;Laerm;40124;52.198;9.902;2023-05-10T13:42:14;72.85;41.82;89.97;;
52872;Laerm;40124;52.198;9.902;2023-05-10T13:44:39;72.82;52.46;82.83;;
52872;Laerm;40124;52.198;9.902;2023-05-10T13:47:05;72.38;46.50;85.98;;
52872;Laerm;40124;52.198;9.902;2023-05-10T13:49:30;71.77;48.05;81.10;;
52872;Laerm;40124;52.198;9.902;2023-05-10T13:51:55;70.95;53.91;80.70;;
52872;Laerm;40124;52.198;9.902;2023-05-10T13:54:20;71.35;45.27;83.29;;
52872;Laerm;40124;52.198;9.902;2023-05-10T13:56:47;72.60;49.45;82.77;;
52872;Laerm;40124;52.198;9.902;2023-05-10T13:59:12;71.93;54.42;81.20;;
52872;Laerm;40124;52.198;9.902;2023-05-10T14:01:37;69.91;43.99;80.86;;
52872;Laerm;40124;52.198;9.902;2023-05-10T14:04:03;73.53;44.76;82.41;;
52872;Laerm;40124;52.198;9.902;2023-05-10T14:06:28;72.48;49.91;86.35;;
52872;Laerm;40124;52.198;9.902;2023-05-10T14:08:53;72.10;50.96;81.31;;
52872;Laerm;40124;52.198;9.902;2023-05-10T14:11:18;73.51;59.07;83.48;;